Time,TemperatureF,DewpointF,PressureIn,WindDirection,WindDirectionDegrees,WindSpeedMPH,WindSpeedGustMPH,Humidity,HourlyPrecipIn,Conditions,Clouds,dailyrainin,SoftwareType,DateUTC
2013-11-10 00:02:00,36.9,24.6,24.23,WNW,293,16.0,17.0,61,0.00,,,0.00,meteohub,2013-11-10 07:02:00,
2013-11-10 00:07:00,36.9,24.6,24.23,WNW,293,16.0,17.0,61,0.00,,,0.00,meteohub,2013-11-10 07:07:00,
2013-11-10 00:12:00,36.7,25.3,24.23,West,270,15.0,16.0,63,0.00,,,0.00,meteohub,2013-11-10 07:12:00,
2013-11-10 00:17:00,36.7,25.0,24.23,NW,315,17.0,17.0,62,0.00,,,0.00,meteohub,2013-11-10 07:17:00,
2013-11-10 00:22:00,36.3,25.3,24.23,NW,315,11.0,19.0,64,0.00,,,0.00,meteohub,2013-11-10 07:22:00,
2013-11-10 00:27:00,36.3,25.3,24.23,West,270,12.0,19.0,64,0.00,,,0.00,meteohub,2013-11-10 07:27:00,
2013-11-10 00:32:00,36.3,25.7,24.23,West,270,13.0,19.0,65,0.00,,,0.00,meteohub,2013-11-10 07:32:00,
2013-11-10 00:37:00,36.5,25.9,24.23,West,270,15.0,15.0,65,0.00,,,0.00,meteohub,2013-11-10 07:37:00,
2013-11-10 00:42:00,36.7,26.1,24.22,West,270,14.0,15.0,65,0.00,,,0.00,meteohub,2013-11-10 07:42:00,
2013-11-10 00:47:00,36.3,25.7,24.23,West,270,11.0,15.0,65,0.00,,,0.00,meteohub,2013-11-10 07:47:00,
2013-11-10 00:52:00,36.1,25.9,24.23,West,270,9.0,15.0,66,0.00,,,0.00,meteohub,2013-11-10 07:52:00,
2013-11-10 00:57:00,36.0,25.7,24.23,West,270,9.0,15.0,66,0.00,,,0.00,meteohub,2013-11-10 07:57:00,
2013-11-10 01:02:00,36.1,25.9,24.23,West,270,7.0,12.0,66,0.00,,,0.00,meteohub,2013-11-10 08:02:00,
2013-11-10 01:07:00,36.1,25.9,24.23,West,270,7.0,11.0,66,0.00,,,0.00,meteohub,2013-11-10 08:07:00,
2013-11-10 01:12:00,35.8,25.2,24.23,NW,315,5.0,10.0,65,0.00,,,0.00,meteohub,2013-11-10 08:12:00,
2013-11-10 01:17:00,35.8,25.5,24.22,West,270,4.0,7.0,66,0.00,,,0.00,meteohub,2013-11-10 08:17:00,
2013-11-10 01:22:00,35.8,25.5,24.23,SW,225,7.0,7.0,66,0.00,,,0.00,meteohub,2013-11-10 08:22:00,
2013-11-10 01:27:00,36.0,25.7,24.23,SW,225,9.0,9.0,66,0.00,,,0.00,meteohub,2013-11-10 08:27:00,
2013-11-10 01:32:00,36.1,25.5,24.23,SW,225,8.0,9.0,65,0.00,,,0.00,meteohub,2013-11-10 08:32:00,
2013-11-10 01:37:00,36.0,25.7,24.22,North,0,2.0,9.0,66,0.00,,,0.00,meteohub,2013-11-10 08:37:00,
2013-11-10 01:42:00,35.8,25.5,24.22,North,0,4.0,9.0,66,0.00,,,0.00,meteohub,2013-11-10 08:42:00,
2013-11-10 01:47:00,36.0,25.3,24.22,NW,315,6.0,8.0,65,0.00,,,0.00,meteohub,2013-11-10 08:47:00,
2013-11-10 01:52:00,36.0,25.7,24.23,SW,225,5.0,6.0,66,0.00,,,0.00,meteohub,2013-11-10 08:52:00,
2013-11-10 01:57:00,36.3,26.1,24.23,SW,225,4.0,6.0,66,0.00,,,0.00,meteohub,2013-11-10 08:57:00,
2013-11-10 02:02:00,36.3,25.7,24.23,SW,225,6.0,6.0,65,0.00,,,0.00,meteohub,2013-11-10 09:02:00,
2013-11-10 02:07:00,36.3,25.7,24.22,SW,225,6.0,6.0,65,0.00,,,0.00,meteohub,2013-11-10 09:07:00,
2013-11-10 02:12:00,36.5,26.2,24.22,South,180,5.0,7.0,66,0.00,,,0.00,meteohub,2013-11-10 09:12:00,
2013-11-10 02:17:00,36.1,25.9,24.23,South,180,4.0,7.0,66,0.00,,,0.00,meteohub,2013-11-10 09:17:00,
2013-11-10 02:22:00,36.1,26.2,24.23,South,180,4.0,7.0,67,0.00,,,0.00,meteohub,2013-11-10 09:22:00,
2013-11-10 02:27:00,36.3,26.4,24.23,South,180,6.0,6.0,67,0.00,,,0.00,meteohub,2013-11-10 09:27:00,
2013-11-10 02:32:00,35.8,25.5,24.23,South,180,8.0,8.0,66,0.00,,,0.00,meteohub,2013-11-10 09:32:00,
2013-11-10 02:37:00,36.0,26.1,24.23,South,180,9.0,10.0,67,0.00,,,0.00,meteohub,2013-11-10 09:37:00,
2013-11-10 02:42:00,36.7,26.8,24.23,SW,225,10.0,11.0,67,0.00,,,0.00,meteohub,2013-11-10 09:42:00,
2013-11-10 02:47:00,36.3,25.7,24.23,South,180,5.0,11.0,65,0.00,,,0.00,meteohub,2013-11-10 09:47:00,
2013-11-10 02:52:00,36.1,25.9,24.23,South,180,5.0,11.0,66,0.00,,,0.00,meteohub,2013-11-10 09:52:00,
2013-11-10 02:57:00,36.3,26.1,24.22,South,180,4.0,11.0,66,0.00,,,0.00,meteohub,2013-11-10 09:57:00,
2013-11-10 03:02:00,36.3,26.4,24.23,South,180,6.0,6.0,67,0.00,,,0.00,meteohub,2013-11-10 10:02:00,
2013-11-10 03:07:00,36.3,26.4,24.22,South,180,6.0,6.0,67,0.00,,,0.00,meteohub,2013-11-10 10:07:00,
2013-11-10 03:12:00,36.1,27.0,24.22,South,180,6.0,6.0,69,0.00,,,0.00,meteohub,2013-11-10 10:12:00,
2013-11-10 03:17:00,36.3,26.8,24.23,South,180,6.0,6.0,68,0.00,,,0.00,meteohub,2013-11-10 10:17:00,
2013-11-10 03:22:00,36.5,26.6,24.23,South,180,7.0,7.0,67,0.00,,,0.00,meteohub,2013-11-10 10:22:00,
2013-11-10 03:27:00,36.5,26.6,24.22,South,180,6.0,7.0,67,0.00,,,0.00,meteohub,2013-11-10 10:27:00,
2013-11-10 03:32:00,36.7,26.4,24.22,South,180,7.0,8.0,66,0.00,,,0.00,meteohub,2013-11-10 10:32:00,
2013-11-10 03:37:00,36.3,26.8,24.22,South,180,7.0,8.0,68,0.00,,,0.00,meteohub,2013-11-10 10:37:00,
2013-11-10 03:42:00,36.0,26.8,24.22,South,180,6.0,8.0,69,0.00,,,0.00,meteohub,2013-11-10 10:42:00,
2013-11-10 03:47:00,35.8,26.6,24.22,South,180,4.0,8.0,69,0.00,,,0.00,meteohub,2013-11-10 10:47:00,
2013-11-10 03:52:00,35.6,26.4,24.22,SE,135,7.0,7.0,69,0.00,,,0.00,meteohub,2013-11-10 10:52:00,
2013-11-10 03:57:00,35.4,26.2,24.22,South,180,7.0,7.0,69,0.00,,,0.00,meteohub,2013-11-10 10:57:00,
2013-11-10 04:02:00,36.0,26.4,24.22,South,180,8.0,8.0,68,0.00,,,0.00,meteohub,2013-11-10 11:02:00,
2013-11-10 04:07:00,36.0,26.4,24.22,South,180,8.0,8.0,68,0.00,,,0.00,meteohub,2013-11-10 11:07:00,
2013-11-10 04:12:00,36.9,26.2,24.22,SW,225,9.0,9.0,65,0.00,,,0.00,meteohub,2013-11-10 11:12:00,
2013-11-10 04:17:00,37.0,26.4,24.22,SW,225,8.0,10.0,65,0.00,,,0.00,meteohub,2013-11-10 11:17:00,
2013-11-10 04:22:00,37.2,26.2,24.22,SW,225,9.0,11.0,64,0.00,,,0.00,meteohub,2013-11-10 11:22:00,
2013-11-10 04:27:00,37.2,26.2,24.22,SW,225,10.0,11.0,64,0.00,,,0.00,meteohub,2013-11-10 11:27:00,
2013-11-10 04:32:00,37.0,26.4,24.22,West,270,7.0,11.0,65,0.00,,,0.00,meteohub,2013-11-10 11:32:00,
2013-11-10 04:37:00,36.9,26.2,24.22,NW,315,4.0,11.0,65,0.00,,,0.00,meteohub,2013-11-10 11:37:00,
2013-11-10 04:42:00,37.0,26.1,24.22,SW,225,5.0,10.0,64,0.00,,,0.00,meteohub,2013-11-10 11:42:00,
2013-11-10 04:47:00,36.9,26.6,24.22,SW,225,7.0,9.0,66,0.00,,,0.00,meteohub,2013-11-10 11:47:00,
2013-11-10 04:52:00,36.5,26.2,24.22,SW,225,5.0,8.0,66,0.00,,,0.00,meteohub,2013-11-10 11:52:00,
2013-11-10 04:57:00,36.7,26.4,24.22,SW,225,4.0,8.0,66,0.00,,,0.00,meteohub,2013-11-10 11:57:00,
2013-11-10 05:02:00,36.5,26.2,24.22,NNW,338,4.0,8.0,66,0.00,,,0.00,meteohub,2013-11-10 12:02:00,
2013-11-10 05:07:00,36.5,26.2,24.21,NNW,338,4.0,8.0,66,0.00,,,0.00,meteohub,2013-11-10 12:07:00,
2013-11-10 05:12:00,36.3,26.1,24.22,South,180,5.0,8.0,66,0.00,,,0.00,meteohub,2013-11-10 12:12:00,
2013-11-10 05:17:00,36.5,26.2,24.22,WNW,293,4.0,5.0,66,0.00,,,0.00,meteohub,2013-11-10 12:17:00,
2013-11-10 05:22:00,36.5,25.9,24.22,South,180,5.0,6.0,65,0.00,,,0.00,meteohub,2013-11-10 12:22:00,
2013-11-10 05:27:00,36.5,25.9,24.22,West,270,4.0,6.0,65,0.00,,,0.00,meteohub,2013-11-10 12:27:00,
2013-11-10 05:32:00,36.5,25.9,24.22,South,180,2.0,5.0,65,0.00,,,0.00,meteohub,2013-11-10 12:32:00,
2013-11-10 05:37:00,36.7,26.1,24.22,SE,135,2.0,5.0,65,0.00,,,0.00,meteohub,2013-11-10 12:37:00,
2013-11-10 05:42:00,36.5,25.9,24.22,SE,135,2.0,4.0,65,0.00,,,0.00,meteohub,2013-11-10 12:42:00,
2013-11-10 05:47:00,36.5,25.9,24.21,South,180,3.0,4.0,65,0.00,,,0.00,meteohub,2013-11-10 12:47:00,
2013-11-10 05:52:00,36.3,25.7,24.22,ESE,113,2.0,4.0,65,0.00,,,0.00,meteohub,2013-11-10 12:52:00,
2013-11-10 05:57:00,36.3,26.1,24.22,SSE,158,3.0,3.0,66,0.00,,,0.00,meteohub,2013-11-10 12:57:00,
2013-11-10 06:02:00,36.1,25.5,24.22,SE,135,4.0,4.0,65,0.00,,,0.00,meteohub,2013-11-10 13:02:00,
2013-11-10 06:07:00,36.1,25.5,24.21,SE,135,4.0,4.0,65,0.00,,,0.00,meteohub,2013-11-10 13:07:00,
2013-11-10 06:12:00,36.3,25.7,24.21,South,180,4.0,4.0,65,0.00,,,0.00,meteohub,2013-11-10 13:12:00,
2013-11-10 06:17:00,36.5,25.9,24.21,SSW,203,5.0,6.0,65,0.00,,,0.00,meteohub,2013-11-10 13:17:00,
2013-11-10 06:22:00,36.7,26.1,24.21,South,180,7.0,8.0,65,0.00,,,0.00,meteohub,2013-11-10 13:22:00,
2013-11-10 06:27:00,36.5,25.9,24.21,South,180,5.0,8.0,65,0.00,,,0.00,meteohub,2013-11-10 13:27:00,
2013-11-10 06:32:00,36.5,25.9,24.21,South,180,6.0,8.0,65,0.00,,,0.00,meteohub,2013-11-10 13:32:00,
2013-11-10 06:37:00,35.6,26.1,24.21,NW,315,2.0,10.0,68,0.00,,,0.00,meteohub,2013-11-10 13:37:00,
2013-11-10 06:42:00,35.6,26.8,24.21,West,270,4.0,10.0,70,0.00,,,0.00,meteohub,2013-11-10 13:42:00,
2013-11-10 06:47:00,35.4,26.2,24.21,West,270,5.0,10.0,69,0.00,,,0.00,meteohub,2013-11-10 13:47:00,
2013-11-10 06:52:00,36.0,26.4,24.21,West,270,8.0,9.0,68,0.00,,,0.00,meteohub,2013-11-10 13:52:00,
2013-11-10 06:57:00,36.1,26.2,24.21,NW,315,8.0,10.0,67,0.00,,,0.00,meteohub,2013-11-10 13:57:00,
2013-11-10 07:02:00,36.1,26.6,24.21,West,270,8.0,10.0,68,0.00,,,0.00,meteohub,2013-11-10 14:02:00,
2013-11-10 07:07:00,36.1,26.6,24.21,West,270,8.0,10.0,68,0.00,,,0.00,meteohub,2013-11-10 14:07:00,
2013-11-10 07:12:00,35.1,26.2,24.21,East,90,2.0,8.0,70,0.00,,,0.00,meteohub,2013-11-10 14:12:00,
2013-11-10 07:17:00,35.2,26.4,24.21,South,180,3.0,8.0,70,0.00,,,0.00,meteohub,2013-11-10 14:17:00,
2013-11-10 07:22:00,35.4,26.6,24.21,West,270,2.0,8.0,70,0.00,,,0.00,meteohub,2013-11-10 14:22:00,
2013-11-10 07:27:00,35.4,26.2,24.21,South,180,2.0,4.0,69,0.00,,,0.00,meteohub,2013-11-10 14:27:00,
2013-11-10 07:32:00,35.2,26.1,24.21,SE,135,4.0,4.0,69,0.00,,,0.00,meteohub,2013-11-10 14:32:00,
2013-11-10 07:37:00,35.1,25.9,24.21,SSE,158,3.0,4.0,69,0.00,,,0.00,meteohub,2013-11-10 14:37:00,
2013-11-10 07:42:00,35.1,25.9,24.21,SE,135,3.0,4.0,69,0.00,,,0.00,meteohub,2013-11-10 14:42:00,
2013-11-10 07:47:00,34.2,25.3,24.21,SE,135,3.0,4.0,70,0.00,,,0.00,meteohub,2013-11-10 14:47:00,
2013-11-10 07:52:00,34.3,25.9,24.21,East,90,2.0,4.0,71,0.00,,,0.00,meteohub,2013-11-10 14:52:00,
2013-11-10 07:57:00,34.3,25.9,24.21,SE,135,2.0,3.0,71,0.00,,,0.00,meteohub,2013-11-10 14:57:00,
2013-11-10 08:02:00,34.3,25.9,24.21,South,180,5.0,5.0,71,0.00,,,0.00,meteohub,2013-11-10 15:02:00,
2013-11-10 08:07:00,34.3,25.9,24.20,South,180,5.0,5.0,71,0.00,,,0.00,meteohub,2013-11-10 15:07:00,
2013-11-10 08:12:00,35.6,26.1,24.21,South,180,7.0,7.0,68,0.00,,,0.00,meteohub,2013-11-10 15:12:00,
2013-11-10 08:17:00,36.0,26.1,24.21,South,180,7.0,7.0,67,0.00,,,0.00,meteohub,2013-11-10 15:17:00,
2013-11-10 08:22:00,36.0,26.4,24.21,South,180,7.0,10.0,68,0.00,,,0.00,meteohub,2013-11-10 15:22:00,
2013-11-10 08:27:00,36.1,27.0,24.21,South,180,6.0,10.0,69,0.00,,,0.00,meteohub,2013-11-10 15:27:00,
2013-11-10 08:32:00,36.5,27.3,24.21,South,180,8.0,10.0,69,0.00,,,0.00,meteohub,2013-11-10 15:32:00,
2013-11-10 08:37:00,36.9,28.0,24.21,SW,225,8.0,10.0,70,0.00,,,0.00,meteohub,2013-11-10 15:37:00,
2013-11-10 08:42:00,37.4,28.9,24.22,SW,225,6.0,10.0,71,0.00,,,0.00,meteohub,2013-11-10 15:42:00,
2013-11-10 08:47:00,36.9,29.7,24.22,SW,225,8.0,9.0,75,0.00,,,0.00,meteohub,2013-11-10 15:47:00,
2013-11-10 08:52:00,37.2,30.4,24.22,West,270,8.0,9.0,76,0.00,,,0.00,meteohub,2013-11-10 15:52:00,
2013-11-10 08:57:00,33.8,27.0,24.22,SW,225,6.0,10.0,76,0.00,,,0.00,meteohub,2013-11-10 15:57:00,
2013-11-10 09:02:00,33.1,27.5,24.22,West,270,5.0,10.0,80,0.00,,,0.00,meteohub,2013-11-10 16:02:00,
2013-11-10 09:07:00,33.1,27.5,24.22,West,270,5.0,10.0,80,0.00,,,0.00,meteohub,2013-11-10 16:07:00,
2013-11-10 09:12:00,32.9,30.4,24.21,SW,225,8.0,9.0,90,0.00,,,0.00,meteohub,2013-11-10 16:12:00,
2013-11-10 09:17:00,34.5,30.6,24.21,East,90,4.0,8.0,85,0.00,,,0.00,meteohub,2013-11-10 16:17:00,
2013-11-10 09:22:00,33.6,28.4,24.21,North,0,2.0,8.0,81,0.00,,,0.00,meteohub,2013-11-10 16:22:00,
2013-11-10 09:27:00,32.4,27.1,24.21,East,90,1.0,8.0,81,0.00,,,0.00,meteohub,2013-11-10 16:27:00,
2013-11-10 09:32:00,33.3,29.3,24.22,South,180,4.0,5.0,85,0.00,,,0.00,meteohub,2013-11-10 16:32:00,
2013-11-10 09:37:00,34.2,28.6,24.22,SE,135,5.0,6.0,80,0.00,,,0.00,meteohub,2013-11-10 16:37:00,
2013-11-10 09:42:00,34.5,28.8,24.21,South,180,7.0,7.0,79,0.00,,,0.00,meteohub,2013-11-10 16:42:00,
2013-11-10 09:47:00,34.9,29.1,24.21,South,180,7.0,7.0,79,0.00,,,0.00,meteohub,2013-11-10 16:47:00,
2013-11-10 09:52:00,35.1,29.5,24.21,South,180,5.0,8.0,80,0.00,,,0.00,meteohub,2013-11-10 16:52:00,
2013-11-10 09:57:00,33.4,27.3,24.21,SW,225,4.0,8.0,78,0.00,,,0.00,meteohub,2013-11-10 16:57:00,
2013-11-10 10:02:00,32.2,27.9,24.22,South,180,4.0,8.0,84,0.00,,,0.00,meteohub,2013-11-10 17:02:00,
2013-11-10 10:07:00,32.2,27.9,24.22,South,180,4.0,8.0,84,0.00,,,0.00,meteohub,2013-11-10 17:07:00,
2013-11-10 10:12:00,34.7,29.8,24.21,South,180,9.0,9.0,82,0.00,,,0.00,meteohub,2013-11-10 17:12:00,
2013-11-10 10:17:00,35.6,30.7,24.22,SW,225,8.0,10.0,82,0.00,,,0.00,meteohub,2013-11-10 17:17:00,
2013-11-10 10:22:00,37.0,31.1,24.22,South,180,7.0,10.0,79,0.00,,,0.00,meteohub,2013-11-10 17:22:00,
2013-11-10 10:27:00,35.6,30.0,24.22,South,180,9.0,10.0,80,0.00,,,0.00,meteohub,2013-11-10 17:27:00,
2013-11-10 10:32:00,36.9,31.8,24.22,SW,225,11.0,11.0,82,0.00,,,0.00,meteohub,2013-11-10 17:32:00,
2013-11-10 10:37:00,37.4,31.8,24.22,SW,225,10.0,11.0,80,0.00,,,0.00,meteohub,2013-11-10 17:37:00,
2013-11-10 10:42:00,36.0,29.1,24.22,NW,315,3.0,11.0,76,0.00,,,0.00,meteohub,2013-11-10 17:42:00,
2013-11-10 10:47:00,34.7,29.1,24.23,NW,315,5.0,11.0,80,0.00,,,0.00,meteohub,2013-11-10 17:47:00,
2013-11-10 10:52:00,32.5,28.8,24.22,West,270,4.0,10.0,86,0.00,,,0.00,meteohub,2013-11-10 17:52:00,
2013-11-10 10:57:00,34.9,31.6,24.23,SW,225,7.0,8.0,88,0.00,,,0.00,meteohub,2013-11-10 17:57:00,
2013-11-10 11:02:00,35.4,31.1,24.22,NW,315,3.0,8.0,84,0.00,,,0.00,meteohub,2013-11-10 18:02:00,
2013-11-10 11:07:00,35.4,31.1,24.22,NW,315,3.0,8.0,84,0.00,,,0.00,meteohub,2013-11-10 18:07:00,
2013-11-10 11:12:00,36.0,30.9,24.22,SW,225,4.0,8.0,82,0.00,,,0.00,meteohub,2013-11-10 18:12:00,
2013-11-10 11:17:00,37.2,31.3,24.22,East,90,2.0,6.0,79,0.00,,,0.00,meteohub,2013-11-10 18:17:00,
2013-11-10 11:22:00,33.4,27.7,24.22,NE,45,4.0,6.0,79,0.00,,,0.00,meteohub,2013-11-10 18:22:00,
2013-11-10 11:27:00,32.2,28.2,24.22,NW,315,4.0,9.0,85,0.00,,,0.00,meteohub,2013-11-10 18:27:00,
2013-11-10 11:32:00,33.3,28.9,24.22,South,180,8.0,9.0,84,0.00,,,0.00,meteohub,2013-11-10 18:32:00,
2013-11-10 11:37:00,35.6,32.4,24.22,West,270,15.0,15.0,88,0.00,,,0.00,meteohub,2013-11-10 18:37:00,
2013-11-10 11:42:00,32.5,28.2,24.22,West,270,7.0,15.0,84,0.00,,,0.00,meteohub,2013-11-10 18:42:00,
2013-11-10 11:47:00,32.4,28.4,24.22,NW,315,4.0,15.0,85,0.00,,,0.00,meteohub,2013-11-10 18:47:00,
2013-11-10 11:52:00,28.0,25.5,24.22,NW,315,8.0,15.0,90,0.00,,,0.00,meteohub,2013-11-10 18:52:00,
2013-11-10 11:57:00,26.1,24.8,24.22,NW,315,13.0,13.0,95,0.00,,,0.00,meteohub,2013-11-10 18:57:00,
2013-11-10 12:02:00,25.0,24.1,24.22,North,0,11.0,13.0,96,0.00,,,0.00,meteohub,2013-11-10 19:02:00,
2013-11-10 12:07:00,25.0,24.1,24.21,North,0,11.0,13.0,96,0.00,,,0.00,meteohub,2013-11-10 19:07:00,
2013-11-10 12:12:00,24.3,24.1,24.21,North,0,10.0,13.0,99,0.00,,,0.00,meteohub,2013-11-10 19:12:00,
2013-11-10 12:17:00,25.5,25.3,24.21,NW,315,12.0,12.0,99,0.00,,,0.00,meteohub,2013-11-10 19:17:00,
2013-11-10 12:22:00,24.4,23.7,24.21,NW,315,8.0,15.0,97,0.00,,,0.00,meteohub,2013-11-10 19:22:00,
2013-11-10 12:27:00,24.3,23.7,24.21,SW,225,4.0,15.0,98,0.00,,,0.00,meteohub,2013-11-10 19:27:00,
2013-11-10 12:32:00,26.6,26.4,24.21,South,180,8.0,15.0,99,0.00,,,0.00,meteohub,2013-11-10 19:32:00,
2013-11-10 12:37:00,25.0,24.3,24.21,NW,315,6.0,12.0,97,0.00,,,0.00,meteohub,2013-11-10 19:37:00,
2013-11-10 12:42:00,24.1,23.5,24.21,NW,315,6.0,12.0,98,0.00,,,0.00,meteohub,2013-11-10 19:42:00,
2013-11-10 12:47:00,23.4,23.2,24.21,NW,315,13.0,13.0,99,0.00,,,0.00,meteohub,2013-11-10 19:47:00,
2013-11-10 12:52:00,22.5,22.3,24.22,NW,315,15.0,15.0,99,0.00,,,0.00,meteohub,2013-11-10 19:52:00,
2013-11-10 13:02:00,22.5,22.3,24.22,NW,315,11.0,15.0,99,0.00,,,0.00,meteohub,2013-11-10 20:02:00,
2013-11-10 13:12:00,22.6,22.5,24.22,NW,315,12.0,14.0,99,0.00,,,0.00,meteohub,2013-11-10 20:12:00,
2013-11-10 13:17:00,22.5,22.3,24.22,NW,315,11.0,14.0,99,0.00,,,0.00,meteohub,2013-11-10 20:17:00,
2013-11-10 13:22:00,22.6,22.5,24.22,NW,315,7.0,14.0,99,0.00,,,0.00,meteohub,2013-11-10 20:22:00,
2013-11-10 13:27:00,23.0,22.8,24.22,West,270,3.0,12.0,99,0.00,,,0.00,meteohub,2013-11-10 20:27:00,
2013-11-10 13:32:00,23.4,23.2,24.22,West,270,5.0,11.0,99,0.00,,,0.00,meteohub,2013-11-10 20:32:00,
2013-11-10 13:37:00,23.9,23.7,24.22,West,270,5.0,8.0,99,0.00,,,0.00,meteohub,2013-11-10 20:37:00,
2013-11-10 13:42:00,22.6,22.1,24.22,North,0,11.0,11.0,98,0.00,,,0.00,meteohub,2013-11-10 20:42:00,
2013-11-10 13:47:00,22.1,21.9,24.22,North,0,11.0,13.0,99,0.00,,,0.00,meteohub,2013-11-10 20:47:00,
2013-11-10 13:52:00,22.1,21.9,24.22,North,0,9.0,13.0,99,0.00,,,0.00,meteohub,2013-11-10 20:52:00,
2013-11-10 13:57:00,21.9,21.7,24.22,North,0,10.0,13.0,99,0.00,,,0.00,meteohub,2013-11-10 20:57:00,
2013-11-10 14:02:00,21.9,21.7,24.22,North,0,12.0,12.0,99,0.00,,,0.00,meteohub,2013-11-10 21:02:00,
2013-11-10 14:07:00,21.9,21.7,24.22,North,0,12.0,12.0,99,0.00,,,0.00,meteohub,2013-11-10 21:07:00,
2013-11-10 14:12:00,21.9,21.7,24.22,NW,315,9.0,13.0,99,0.00,,,0.00,meteohub,2013-11-10 21:12:00,
2013-11-10 14:22:00,22.1,21.9,24.22,North,0,13.0,13.0,99,0.00,,,0.00,meteohub,2013-11-10 21:22:00,
2013-11-10 14:27:00,21.7,21.6,24.22,North,0,10.0,13.0,99,0.00,,,0.00,meteohub,2013-11-10 21:27:00,
2013-11-10 14:32:00,21.6,21.4,24.22,NW,315,9.0,13.0,99,0.00,,,0.00,meteohub,2013-11-10 21:32:00,
2013-11-10 14:37:00,21.7,21.6,24.23,NW,315,7.0,13.0,99,0.00,,,0.00,meteohub,2013-11-10 21:37:00,
2013-11-10 14:42:00,21.7,21.6,24.23,NW,315,10.0,12.0,99,0.00,,,0.00,meteohub,2013-11-10 21:42:00,
2013-11-10 14:47:00,21.7,21.6,24.23,NW,315,8.0,11.0,99,0.00,,,0.00,meteohub,2013-11-10 21:47:00,
2013-11-10 14:52:00,21.7,21.6,24.22,NW,315,8.0,11.0,99,0.00,,,0.00,meteohub,2013-11-10 21:52:00,
2013-11-10 14:57:00,21.6,21.4,24.22,NW,315,5.0,11.0,99,0.00,,,0.00,meteohub,2013-11-10 21:57:00,
2013-11-10 15:02:00,21.6,21.4,24.23,West,270,5.0,10.0,99,0.00,,,0.00,meteohub,2013-11-10 22:02:00,
2013-11-10 15:07:00,21.6,21.4,24.22,West,270,5.0,9.0,99,0.00,,,0.00,meteohub,2013-11-10 22:07:00,
2013-11-10 15:12:00,21.6,21.4,24.22,NW,315,6.0,8.0,99,0.00,,,0.00,meteohub,2013-11-10 22:12:00,
2013-11-10 15:17:00,21.6,21.4,24.22,West,270,4.0,7.0,99,0.00,,,0.00,meteohub,2013-11-10 22:17:00,
2013-11-10 15:22:00,21.7,21.6,24.22,West,270,3.0,7.0,99,0.00,,,0.00,meteohub,2013-11-10 22:22:00,
2013-11-10 15:27:00,21.7,21.6,24.22,West,270,5.0,7.0,99,0.00,,,0.00,meteohub,2013-11-10 22:27:00,
2013-11-10 15:32:00,21.6,21.4,24.23,NW,315,11.0,11.0,99,0.00,,,0.00,meteohub,2013-11-10 22:32:00,
2013-11-10 15:37:00,21.0,20.8,24.22,NW,315,11.0,11.0,99,0.00,,,0.00,meteohub,2013-11-10 22:37:00,
2013-11-10 15:42:00,21.2,21.0,24.22,NW,315,7.0,11.0,99,0.00,,,0.00,meteohub,2013-11-10 22:42:00,
2013-11-10 15:47:00,21.2,21.0,24.22,NW,315,8.0,11.0,99,0.00,,,0.00,meteohub,2013-11-10 22:47:00,
2013-11-10 15:52:00,21.2,21.0,24.22,North,0,8.0,11.0,99,0.00,,,0.00,meteohub,2013-11-10 22:52:00,
2013-11-10 15:57:00,21.0,20.8,24.22,NW,315,5.0,9.0,99,0.00,,,0.00,meteohub,2013-11-10 22:57:00,
2013-11-10 16:02:00,21.2,21.0,24.23,NW,315,4.0,9.0,99,0.00,,,0.00,meteohub,2013-11-10 23:02:00,
2013-11-10 16:07:00,21.2,21.0,24.23,NW,315,4.0,9.0,99,0.00,,,0.00,meteohub,2013-11-10 23:07:00,
2013-11-10 16:12:00,20.7,20.5,24.23,North,0,8.0,9.0,99,0.00,,,0.00,meteohub,2013-11-10 23:12:00,
2013-11-10 16:17:00,20.5,20.3,24.23,North,0,11.0,11.0,99,0.00,,,0.00,meteohub,2013-11-10 23:17:00,
2013-11-10 16:22:00,20.3,20.1,24.23,North,0,11.0,11.0,99,0.00,,,0.00,meteohub,2013-11-10 23:22:00,
2013-11-10 16:27:00,20.1,19.9,24.23,North,0,9.0,11.0,99,0.00,,,0.00,meteohub,2013-11-10 23:27:00,
2013-11-10 16:32:00,20.1,19.9,24.23,North,0,11.0,11.0,99,0.00,,,0.00,meteohub,2013-11-10 23:32:00,
2013-11-10 16:37:00,19.9,19.8,24.23,North,0,8.0,11.0,99,0.00,,,0.00,meteohub,2013-11-10 23:37:00,
2013-11-10 16:42:00,19.9,19.8,24.24,North,0,5.0,11.0,99,0.00,,,0.00,meteohub,2013-11-10 23:42:00,
2013-11-10 16:47:00,19.9,19.8,24.24,North,0,6.0,11.0,99,0.00,,,0.00,meteohub,2013-11-10 23:47:00,
2013-11-10 16:52:00,19.9,19.8,24.24,NNW,338,5.0,9.0,99,0.00,,,0.00,meteohub,2013-11-10 23:52:00,
2013-11-10 16:57:00,19.9,19.8,24.24,NW,315,7.0,8.0,99,0.00,,,0.00,meteohub,2013-11-10 23:57:00,
2013-11-10 17:02:00,19.9,19.8,24.24,NW,315,7.0,8.0,99,0.00,,,0.00,meteohub,2013-11-11 00:02:00,
2013-11-10 17:07:00,19.9,19.8,24.24,NW,315,7.0,8.0,99,0.00,,,0.00,meteohub,2013-11-11 00:07:00,
2013-11-10 17:12:00,19.8,19.6,24.24,NW,315,6.0,8.0,99,0.00,,,0.00,meteohub,2013-11-11 00:12:00,
2013-11-10 17:17:00,19.9,19.8,24.24,NW,315,7.0,7.0,99,0.00,,,0.00,meteohub,2013-11-11 00:17:00,
2013-11-10 17:22:00,19.9,19.8,24.25,NW,315,7.0,8.0,99,0.00,,,0.00,meteohub,2013-11-11 00:22:00,
2013-11-10 17:27:00,19.8,19.6,24.24,NW,315,5.0,8.0,99,0.00,,,0.00,meteohub,2013-11-11 00:27:00,
2013-11-10 17:32:00,19.8,19.6,24.24,NW,315,5.0,7.0,99,0.00,,,0.00,meteohub,2013-11-11 00:32:00,
2013-11-10 17:37:00,19.6,19.4,24.24,West,270,4.0,7.0,99,0.00,,,0.00,meteohub,2013-11-11 00:37:00,
2013-11-10 17:42:00,19.6,19.4,24.25,NW,315,6.0,6.0,99,0.00,,,0.00,meteohub,2013-11-11 00:42:00,
2013-11-10 17:47:00,19.6,19.4,24.24,West,270,4.0,6.0,99,0.00,,,0.00,meteohub,2013-11-11 00:47:00,
2013-11-10 17:52:00,19.6,19.4,24.24,West,270,4.0,6.0,99,0.00,,,0.00,meteohub,2013-11-11 00:52:00,
2013-11-10 17:57:00,19.6,19.4,24.24,West,270,5.0,6.0,99,0.00,,,0.00,meteohub,2013-11-11 00:57:00,
2013-11-10 18:02:00,19.6,19.4,24.25,NW,315,7.0,7.0,99,0.00,,,0.00,meteohub,2013-11-11 01:02:00,
2013-11-10 18:07:00,19.6,19.4,24.25,NW,315,7.0,7.0,99,0.00,,,0.00,meteohub,2013-11-11 01:07:00,
2013-11-10 18:12:00,19.6,19.4,24.25,NW,315,7.0,7.0,99,0.00,,,0.00,meteohub,2013-11-11 01:12:00,
2013-11-10 18:17:00,19.6,19.4,24.26,NW,315,7.0,8.0,99,0.00,,,0.00,meteohub,2013-11-11 01:17:00,
2013-11-10 18:22:00,19.6,19.4,24.25,NW,315,6.0,8.0,99,0.00,,,0.00,meteohub,2013-11-11 01:22:00,
2013-11-10 18:27:00,19.6,19.4,24.26,NW,315,5.0,7.0,99,0.00,,,0.00,meteohub,2013-11-11 01:27:00,
2013-11-10 18:32:00,19.6,19.4,24.27,NNW,338,5.0,7.0,99,0.00,,,0.00,meteohub,2013-11-11 01:32:00,
2013-11-10 18:37:00,19.6,19.4,24.26,North,0,6.0,7.0,99,0.00,,,0.00,meteohub,2013-11-11 01:37:00,
2013-11-10 18:42:00,19.4,19.2,24.26,North,0,5.0,6.0,99,0.00,,,0.00,meteohub,2013-11-11 01:42:00,
2013-11-10 18:47:00,19.2,19.0,24.26,North,0,5.0,6.0,99,0.00,,,0.00,meteohub,2013-11-11 01:47:00,
2013-11-10 18:52:00,19.2,19.0,24.26,North,0,4.0,6.0,99,0.00,,,0.00,meteohub,2013-11-11 01:52:00,
2013-11-10 18:57:00,19.2,19.0,24.26,North,0,4.0,6.0,99,0.00,,,0.00,meteohub,2013-11-11 01:57:00,
2013-11-10 19:02:00,19.0,18.9,24.26,North,0,4.0,5.0,99,0.00,,,0.00,meteohub,2013-11-11 02:02:00,
2013-11-10 19:07:00,19.0,18.9,24.27,North,0,4.0,5.0,99,0.00,,,0.00,meteohub,2013-11-11 02:07:00,
2013-11-10 19:12:00,19.2,19.0,24.27,North,0,4.0,5.0,99,0.00,,,0.00,meteohub,2013-11-11 02:12:00,
2013-11-10 19:17:00,19.2,19.0,24.27,North,0,4.0,5.0,99,0.00,,,0.00,meteohub,2013-11-11 02:17:00,
2013-11-10 19:22:00,19.2,19.0,24.26,North,0,4.0,5.0,99,0.00,,,0.00,meteohub,2013-11-11 02:22:00,
2013-11-10 19:27:00,19.2,19.0,24.27,North,0,4.0,5.0,99,0.00,,,0.00,meteohub,2013-11-11 02:27:00,
2013-11-10 19:32:00,19.0,18.9,24.27,North,0,4.0,5.0,99,0.00,,,0.00,meteohub,2013-11-11 02:32:00,
2013-11-10 19:37:00,19.0,18.9,24.27,North,0,4.0,4.0,99,0.00,,,0.00,meteohub,2013-11-11 02:37:00,
2013-11-10 19:42:00,19.0,18.9,24.27,North,0,5.0,6.0,99,0.00,,,0.00,meteohub,2013-11-11 02:42:00,
2013-11-10 19:47:00,18.9,18.7,24.26,North,0,4.0,6.0,99,0.00,,,0.00,meteohub,2013-11-11 02:47:00,
2013-11-10 19:52:00,18.9,18.7,24.27,North,0,3.0,6.0,99,0.00,,,0.00,meteohub,2013-11-11 02:52:00,
2013-11-10 19:57:00,18.9,18.7,24.27,North,0,2.0,5.0,99,0.00,,,0.00,meteohub,2013-11-11 02:57:00,
2013-11-10 20:02:00,18.7,18.5,24.27,North,0,2.0,5.0,99,0.00,,,0.00,meteohub,2013-11-11 03:02:00,
2013-11-10 20:07:00,18.7,18.5,24.26,North,0,2.0,4.0,99,0.00,,,0.00,meteohub,2013-11-11 03:07:00,
2013-11-10 20:12:00,18.7,18.5,24.26,North,0,1.0,3.0,99,0.00,,,0.00,meteohub,2013-11-11 03:12:00,
2013-11-10 20:17:00,18.9,18.7,24.27,North,0,0.0,2.0,99,0.00,,,0.00,meteohub,2013-11-11 03:17:00,
2013-11-10 20:22:00,19.0,18.9,24.27,North,0,4.0,4.0,99,0.00,,,0.00,meteohub,2013-11-11 03:22:00,
2013-11-10 20:27:00,19.0,18.9,24.27,North,0,3.0,4.0,99,0.00,,,0.00,meteohub,2013-11-11 03:27:00,
2013-11-10 20:32:00,18.9,18.7,24.27,North,0,4.0,4.0,99,0.00,,,0.00,meteohub,2013-11-11 03:32:00,
2013-11-10 20:37:00,18.9,18.7,24.26,North,0,2.0,4.0,99,0.00,,,0.00,meteohub,2013-11-11 03:37:00,
2013-11-10 20:42:00,18.7,18.5,24.27,North,0,2.0,4.0,99,0.00,,,0.00,meteohub,2013-11-11 03:42:00,
2013-11-10 20:47:00,18.7,18.5,24.27,North,0,2.0,4.0,99,0.00,,,0.00,meteohub,2013-11-11 03:47:00,
2013-11-10 20:52:00,18.7,18.5,24.27,North,0,0.0,2.0,99,0.00,,,0.00,meteohub,2013-11-11 03:52:00,
2013-11-10 20:57:00,18.9,18.7,24.27,North,0,2.0,2.0,99,0.00,,,0.00,meteohub,2013-11-11 03:57:00,
2013-11-10 21:02:00,19.0,18.9,24.27,North,0,0.0,2.0,99,0.00,,,0.00,meteohub,2013-11-11 04:02:00,
2013-11-10 21:07:00,19.0,18.9,24.27,North,0,0.0,2.0,99,0.00,,,0.00,meteohub,2013-11-11 04:07:00,
2013-11-10 21:12:00,19.4,19.2,24.27,North,0,1.0,2.0,99,0.00,,,0.00,meteohub,2013-11-11 04:12:00,
2013-11-10 21:17:00,19.6,19.4,24.27,North,0,0.0,2.0,99,0.00,,,0.00,meteohub,2013-11-11 04:17:00,
2013-11-10 21:22:00,19.9,19.8,24.27,North,0,0.0,2.0,99,0.00,,,0.00,meteohub,2013-11-11 04:22:00,
2013-11-10 21:27:00,20.1,19.9,24.27,North,0,0.0,2.0,99,0.00,,,0.00,meteohub,2013-11-11 04:27:00,
2013-11-10 21:32:00,19.9,19.8,24.27,North,0,4.0,0.0,99,0.00,,,0.00,meteohub,2013-11-11 04:32:00,
2013-11-10 21:37:00,19.6,19.4,24.28,North,0,4.0,4.0,99,0.00,,,0.00,meteohub,2013-11-11 04:37:00,
2013-11-10 21:42:00,19.4,19.2,24.27,North,0,4.0,4.0,99,0.00,,,0.00,meteohub,2013-11-11 04:42:00,
2013-11-10 21:47:00,19.8,19.6,24.28,North,0,2.0,4.0,99,0.00,,,0.00,meteohub,2013-11-11 04:47:00,
2013-11-10 21:52:00,20.5,20.3,24.28,North,0,2.0,4.0,99,0.00,,,0.00,meteohub,2013-11-11 04:52:00,
2013-11-10 21:57:00,21.6,21.4,24.28,North,0,2.0,4.0,99,0.00,,,0.00,meteohub,2013-11-11 04:57:00,
2013-11-10 22:02:00,21.7,21.6,24.28,North,0,2.0,3.0,99,0.00,,,0.00,meteohub,2013-11-11 05:02:00,
2013-11-10 22:07:00,21.7,21.6,24.28,North,0,2.0,3.0,99,0.00,,,0.00,meteohub,2013-11-11 05:07:00,
2013-11-10 22:12:00,22.5,22.3,24.28,North,0,2.0,2.0,99,0.00,,,0.00,meteohub,2013-11-11 05:12:00,
2013-11-10 22:17:00,21.4,21.2,24.28,North,0,2.0,3.0,99,0.00,,,0.00,meteohub,2013-11-11 05:17:00,
2013-11-10 22:22:00,20.8,20.7,24.28,North,0,2.0,3.0,99,0.00,,,0.00,meteohub,2013-11-11 05:22:00,
2013-11-10 22:27:00,21.0,20.8,24.28,North,0,1.0,3.0,99,0.00,,,0.00,meteohub,2013-11-11 05:27:00,
2013-11-10 22:32:00,22.3,22.1,24.28,North,0,2.0,2.0,99,0.00,,,0.00,meteohub,2013-11-11 05:32:00,
2013-11-10 22:37:00,21.9,21.7,24.28,North,0,2.0,2.0,99,0.00,,,0.00,meteohub,2013-11-11 05:37:00,
2013-11-10 22:42:00,20.7,20.5,24.28,North,0,2.0,3.0,99,0.00,,,0.00,meteohub,2013-11-11 05:42:00,
2013-11-10 22:47:00,19.9,19.8,24.27,North,0,2.0,3.0,99,0.00,,,0.00,meteohub,2013-11-11 05:47:00,
2013-11-10 22:52:00,19.6,19.4,24.28,North,0,2.0,3.0,99,0.00,,,0.00,meteohub,2013-11-11 05:52:00,
2013-11-10 22:57:00,19.6,19.4,24.28,North,0,0.0,3.0,99,0.00,,,0.00,meteohub,2013-11-11 05:57:00,
2013-11-10 23:02:00,21.7,21.6,24.28,North,0,0.0,2.0,99,0.00,,,0.00,meteohub,2013-11-11 06:02:00,
2013-11-10 23:07:00,21.7,21.6,24.29,North,0,0.0,2.0,99,0.00,,,0.00,meteohub,2013-11-11 06:07:00,
2013-11-10 23:12:00,20.8,20.7,24.29,North,0,2.0,3.0,99,0.00,,,0.00,meteohub,2013-11-11 06:12:00,
2013-11-10 23:17:00,20.1,19.9,24.28,North,0,2.0,3.0,99,0.00,,,0.00,meteohub,2013-11-11 06:17:00,
2013-11-10 23:22:00,19.8,19.6,24.29,North,0,2.0,3.0,99,0.00,,,0.00,meteohub,2013-11-11 06:22:00,
2013-11-10 23:27:00,19.8,19.6,24.29,North,0,2.0,3.0,99,0.00,,,0.00,meteohub,2013-11-11 06:27:00,
2013-11-10 23:32:00,19.8,19.6,24.29,North,0,1.0,2.0,99,0.00,,,0.00,meteohub,2013-11-11 06:32:00,
2013-11-10 23:37:00,19.8,19.6,24.29,North,0,2.0,2.0,99,0.00,,,0.00,meteohub,2013-11-11 06:37:00,
2013-11-10 23:42:00,19.8,19.6,24.29,North,0,2.0,2.0,99,0.00,,,0.00,meteohub,2013-11-11 06:42:00,
2013-11-10 23:47:00,20.3,20.1,24.29,North,0,0.0,2.0,99,0.00,,,0.00,meteohub,2013-11-11 06:47:00,
2013-11-10 23:52:00,21.2,21.0,24.30,North,0,3.0,3.0,99,0.00,,,0.00,meteohub,2013-11-11 06:52:00,
2013-11-10 23:57:00,20.5,20.3,24.30,North,0,3.0,3.0,99,0.00,,,0.00,meteohub,2013-11-11 06:57:00,